createdAt,value
2023-03-12T00:01:37.823Z,6.13
2023-03-12T00:04:40.816Z,3.83
2023-03-12T00:07:45.119Z,4.87
2023-03-12T00:10:48.084Z,5.20
2023-03-12T00:13:52.319Z,5.17
2023-03-12T00:16:55.817Z,6.53
2023-03-12T00:19:58.806Z,6.17
2023-03-12T00:23:03.150Z,4.77
2023-03-12T00:26:08.629Z,4.37
2023-03-12T00:29:11.566Z,5.00
2023-03-12T00:32:14.559Z,4.67
2023-03-12T00:35:17.564Z,3.60
2023-03-12T00:38:21.942Z,4.47
2023-03-12T00:41:26.301Z,4.23
2023-03-12T00:44:29.253Z,5.00
2023-03-12T00:47:32.225Z,3.70
2023-03-12T00:50:35.160Z,4.90
2023-03-12T00:53:39.588Z,5.37
2023-03-12T00:56:42.520Z,4.70
2023-03-12T00:59:45.673Z,4.53
2023-03-12T01:02:48.684Z,4.60
2023-03-12T01:05:55.502Z,5.23
2023-03-12T01:08:59.979Z,5.87
2023-03-12T01:12:02.988Z,5.50
2023-03-12T01:15:07.106Z,7.07
2023-03-12T01:18:10.075Z,6.00
2023-03-12T01:21:13.041Z,7.10
2023-03-12T01:24:17.669Z,5.83
2023-03-12T01:27:21.203Z,7.63
2023-03-12T01:30:24.179Z,8.70
2023-03-12T01:33:27.323Z,7.00
2023-03-12T01:36:31.511Z,5.10
2023-03-12T01:39:35.922Z,5.63
2023-03-12T01:42:38.897Z,6.77
2023-03-12T01:46:07.448Z,6.23
2023-03-12T01:49:13.645Z,7.03
2023-03-12T01:52:19.872Z,7.83
2023-03-12T01:55:24.320Z,6.10
2023-03-12T01:58:28.589Z,7.20
2023-03-12T02:01:31.970Z,8.73
2023-03-12T02:04:35.769Z,7.97
2023-03-12T02:07:38.749Z,7.63
2023-03-12T02:10:43.227Z,5.60
2023-03-12T02:13:46.321Z,5.83
2023-03-12T02:16:49.637Z,6.33
2023-03-12T02:20:01.231Z,5.67
2023-03-12T02:23:07.400Z,8.50
2023-03-12T02:26:12.987Z,4.83
2023-03-12T02:29:16.557Z,5.17
2023-03-12T02:32:25.385Z,7.37
2023-03-12T02:35:28.654Z,8.37
2023-03-12T02:38:39.719Z,9.10
2023-03-12T02:41:46.909Z,7.13
2023-03-12T02:44:49.863Z,9.67
2023-03-12T02:47:52.876Z,6.90
2023-03-12T02:50:55.890Z,7.27
2023-03-12T02:53:58.821Z,7.63
2023-03-12T02:57:03.146Z,7.17
2023-03-12T03:00:07.230Z,5.37
2023-03-12T03:03:10.314Z,7.13
2023-03-12T03:06:13.799Z,5.23
2023-03-12T03:09:16.978Z,6.57
2023-03-12T03:12:22.757Z,5.03
2023-03-12T03:15:26.423Z,4.43
2023-03-12T03:18:29.687Z,4.53
2023-03-12T03:21:33.210Z,6.60
2023-03-12T03:24:36.413Z,4.60
2023-03-12T03:27:40.721Z,5.20
2023-03-12T03:30:43.781Z,4.83
2023-03-12T03:33:47.035Z,6.07
2023-03-12T03:36:49.981Z,7.73
2023-03-12T03:39:52.941Z,5.30
2023-03-12T03:42:57.261Z,10.27
2023-03-12T03:46:01.462Z,4.80
2023-03-12T03:49:04.957Z,5.73
2023-03-12T03:52:08.065Z,4.00
2023-03-12T03:55:11.250Z,7.23
2023-03-12T03:58:15.540Z,7.50
2023-03-12T04:01:18.515Z,5.00
2023-03-12T04:04:21.608Z,4.40
2023-03-12T04:07:24.719Z,4.63
2023-03-12T04:10:27.674Z,6.07
2023-03-12T04:13:31.947Z,4.43
2023-03-12T04:16:34.931Z,4.07
2023-03-12T04:19:38.518Z,4.70
2023-03-12T04:22:41.477Z,5.63
2023-03-12T04:25:44.427Z,5.20
2023-03-12T04:28:48.725Z,4.30
2023-03-12T04:31:51.736Z,4.73
2023-03-12T04:34:54.897Z,8.10
2023-03-12T04:37:57.906Z,6.87
2023-03-12T04:41:01.551Z,7.63
2023-03-12T04:44:06.344Z,4.83
2023-03-12T04:47:09.290Z,6.83
2023-03-12T04:50:13.388Z,5.53
2023-03-12T04:53:16.349Z,5.23
2023-03-12T04:56:19.316Z,6.43
2023-03-12T04:59:23.609Z,5.10
2023-03-12T05:02:26.972Z,7.20
2023-03-12T05:05:29.904Z,7.33
2023-03-12T05:08:32.870Z,4.47
2023-03-12T05:11:37.829Z,6.00
2023-03-12T05:14:43.801Z,6.33
2023-03-12T05:17:46.912Z,7.87
2023-03-12T05:20:59.569Z,6.17
2023-03-12T05:24:02.597Z,5.53
2023-03-12T05:27:08.299Z,6.70
2023-03-12T05:30:13.403Z,5.03
2023-03-12T05:33:16.389Z,6.10
2023-03-12T05:36:19.643Z,8.80
2023-03-12T05:39:22.849Z,4.63
2023-03-12T05:42:26.326Z,5.27
2023-03-12T05:45:30.772Z,5.37
2023-03-12T05:48:33.803Z,7.27
2023-03-12T05:51:37.047Z,5.43
2023-03-12T05:54:40.100Z,7.07
2023-03-12T05:57:43.091Z,4.87
2023-03-12T06:00:47.558Z,8.83
2023-03-12T06:03:50.958Z,8.77
2023-03-12T06:06:53.903Z,7.03
2023-03-12T06:09:57.095Z,8.30
2023-03-12T06:13:00.127Z,11.03
2023-03-12T06:16:05.678Z,5.97
2023-03-12T06:19:08.646Z,5.80
2023-03-12T06:22:11.714Z,7.23
2023-03-12T06:25:14.693Z,6.03
2023-03-12T06:28:17.961Z,6.17
2023-03-12T06:31:23.419Z,6.40
2023-03-12T06:34:26.417Z,6.90
2023-03-12T06:37:29.646Z,12.77
2023-03-12T06:40:32.982Z,11.37
2023-03-12T06:43:40.225Z,10.53
2023-03-12T06:46:45.175Z,7.97
2023-03-12T06:49:51.547Z,11.20
2023-03-12T06:52:54.501Z,11.33
2023-03-12T06:55:57.495Z,15.30
2023-03-12T06:59:00.591Z,9.67
2023-03-12T07:02:05.205Z,9.97
2023-03-12T07:05:09.967Z,9.00
2023-03-12T07:08:13.394Z,7.63
2023-03-12T07:11:17.631Z,11.43
2023-03-12T07:14:21.381Z,11.93
2023-03-12T07:17:26.392Z,13.27
2023-03-12T07:20:29.371Z,7.47
2023-03-12T07:23:32.316Z,10.43
2023-03-12T07:26:36.212Z,7.67
2023-03-12T07:29:39.240Z,9.30
2023-03-12T07:32:44.724Z,8.70
2023-03-12T07:35:51.565Z,10.07
2023-03-12T07:38:54.828Z,7.03
2023-03-12T07:41:57.810Z,6.87
2023-03-12T07:45:00.979Z,8.37
2023-03-12T07:48:05.773Z,6.27
2023-03-12T07:51:08.900Z,6.37
2023-03-12T07:54:11.837Z,4.40
2023-03-12T07:57:15.089Z,5.00
2023-03-12T08:00:18.430Z,5.67
2023-03-12T08:03:23.011Z,4.20
2023-03-12T08:06:26.344Z,4.00
2023-03-12T08:09:29.501Z,8.60
2023-03-12T08:12:32.929Z,7.00
2023-03-12T08:15:35.890Z,4.97
2023-03-12T08:18:40.227Z,5.43
2023-03-12T08:21:43.184Z,5.03
2023-03-12T08:24:46.449Z,6.00
2023-03-12T08:27:49.467Z,4.17
2023-03-12T08:30:53.993Z,4.10
2023-03-12T08:33:58.278Z,3.93
2023-03-12T08:37:01.327Z,5.70
2023-03-12T08:40:12.859Z,7.43
2023-03-12T08:43:15.853Z,7.53
2023-03-12T08:46:19.035Z,6.13
2023-03-12T08:49:24.286Z,5.67
2023-03-12T08:52:27.339Z,3.80
2023-03-12T08:55:30.623Z,4.77
2023-03-12T08:58:33.652Z,3.60
2023-03-12T09:01:36.649Z,5.63
2023-03-12T09:04:41.173Z,4.13
2023-03-12T09:07:44.199Z,6.43
2023-03-12T09:10:50.007Z,8.47
2023-03-12T09:14:26.609Z,4.53
2023-03-12T09:17:16.056Z,5.87
2023-03-12T09:20:20.572Z,4.60
2023-03-12T09:23:23.787Z,6.20
2023-03-12T09:26:26.804Z,5.47
2023-03-12T09:29:29.736Z,6.00
2023-03-12T09:32:32.736Z,4.87
2023-03-12T09:35:37.346Z,5.93
2023-03-12T09:38:40.423Z,6.23
2023-03-12T09:41:47.620Z,5.73
2023-03-12T09:44:53.112Z,5.77
2023-03-12T09:47:59.644Z,5.57
2023-03-12T09:51:07.241Z,5.00
2023-03-12T09:54:23.797Z,6.33
2023-03-12T09:57:29.827Z,4.93
2023-03-12T10:00:36.994Z,6.03
2023-03-12T10:03:57.406Z,4.03
2023-03-12T10:07:09.868Z,4.93
2023-03-12T10:10:25.564Z,3.77
2023-03-12T10:13:46.984Z,4.97
2023-03-12T10:16:59.840Z,4.83
2023-03-12T10:20:33.117Z,2.60
2023-03-12T10:23:48.869Z,3.50
2023-03-12T10:26:53.891Z,7.20
2023-03-12T10:29:57.557Z,5.60
2023-03-12T10:33:04.978Z,2.40
2023-03-12T10:36:16.181Z,6.73
2023-03-12T10:39:21.509Z,4.63
2023-03-12T10:42:26.549Z,3.77
2023-03-12T10:45:39.001Z,3.37
2023-03-12T10:48:43.738Z,2.30
2023-03-12T10:51:56.113Z,4.10
2023-03-12T10:55:13.118Z,3.10
2023-03-12T10:58:24.839Z,4.37
2023-03-12T11:01:30.386Z,5.33
2023-03-12T11:04:33.949Z,8.73
2023-03-12T11:07:37.241Z,5.50
2023-03-12T11:10:44.417Z,4.27
2023-03-12T11:13:47.460Z,2.60
2023-03-12T11:16:51.346Z,4.77
2023-03-12T11:19:54.417Z,3.80
2023-03-12T11:22:57.591Z,3.57
2023-03-12T11:26:04.396Z,3.57
2023-03-12T11:29:18.186Z,3.47
2023-03-12T11:32:26.025Z,5.07
2023-03-12T11:35:41.699Z,5.30
2023-03-12T11:38:51.665Z,9.30
2023-03-12T11:42:17.237Z,4.03
2023-03-12T11:45:27.280Z,3.70
2023-03-12T11:48:39.429Z,4.27
2023-03-12T11:51:52.152Z,5.47
2023-03-12T11:55:22.259Z,2.40
2023-03-12T11:58:39.277Z,3.60
2023-03-12T12:01:56.902Z,3.70
2023-03-12T12:05:23.341Z,4.37
2023-03-12T12:08:48.978Z,2.97
2023-03-12T12:12:05.491Z,6.00
2023-03-12T12:15:28.911Z,4.17
2023-03-12T12:18:51.864Z,2.20
2023-03-12T12:22:12.127Z,3.30
2023-03-12T12:25:29.260Z,4.17
2023-03-12T12:29:04.828Z,2.00
2023-03-12T12:32:17.558Z,1.70
2023-03-12T12:35:28.162Z,4.97
2023-03-12T12:38:36.135Z,3.27
2023-03-12T12:41:42.737Z,3.00
2023-03-12T12:44:49.659Z,4.70
2023-03-12T12:47:58.023Z,3.80
2023-03-12T12:51:02.216Z,4.80
2023-03-12T12:54:09.628Z,2.20
2023-03-12T12:57:19.220Z,4.20
2023-03-12T13:00:39.146Z,3.50
2023-03-12T13:03:44.338Z,1.40
2023-03-12T13:07:03.421Z,2.90
2023-03-12T13:10:28.583Z,1.83
2023-03-12T13:13:33.321Z,2.67
2023-03-12T13:16:39.062Z,2.23
2023-03-12T13:19:44.988Z,4.03
2023-03-12T13:23:24.290Z,2.10
2023-03-12T13:26:32.502Z,2.53
2023-03-12T13:29:42.382Z,4.57
2023-03-12T13:33:11.603Z,2.37
2023-03-12T13:36:28.178Z,2.20
2023-03-12T13:39:33.838Z,5.47
2023-03-12T13:42:40.658Z,2.93
2023-03-12T13:46:01.722Z,2.77
2023-03-12T13:49:14.624Z,3.27
2023-03-12T13:52:23.816Z,3.13
2023-03-12T13:55:29.077Z,2.53
2023-03-12T13:58:32.748Z,1.50
2023-03-12T14:01:41.257Z,2.27
2023-03-12T14:04:44.496Z,2.03
2023-03-12T14:08:12.020Z,3.47
2023-03-12T14:11:27.131Z,1.93
2023-03-12T14:15:04.836Z,3.07
2023-03-12T14:18:16.764Z,1.90
2023-03-12T14:21:22.444Z,3.87
2023-03-12T14:24:28.524Z,3.40
2023-03-12T14:27:34.653Z,3.13
2023-03-12T14:30:45.433Z,3.27
2023-03-12T14:33:54.367Z,2.67
2023-03-12T14:37:01.488Z,2.47
2023-03-12T14:40:15.749Z,7.17
2023-03-12T14:43:24.171Z,7.10
2023-03-12T14:46:27.242Z,2.50
2023-03-12T14:49:32.566Z,6.87
2023-03-12T14:52:35.544Z,3.90
2023-03-12T14:55:38.524Z,3.67
2023-03-12T14:58:45.301Z,4.73
2023-03-12T15:01:49.122Z,5.47
2023-03-12T15:04:56.912Z,5.10
2023-03-12T15:08:05.304Z,3.43
2023-03-12T15:11:08.341Z,2.67
2023-03-12T15:14:16.324Z,3.70
2023-03-12T15:17:21.120Z,4.17
2023-03-12T15:20:26.787Z,3.43
2023-03-12T15:23:33.618Z,5.07
2023-03-12T15:26:38.141Z,2.30
2023-03-12T15:29:42.836Z,4.50
2023-03-12T15:33:08.738Z,3.27
2023-03-12T15:36:26.362Z,5.47
2023-03-12T15:39:32.227Z,2.87
2023-03-12T15:42:41.251Z,3.70
2023-03-12T15:45:44.460Z,2.97
2023-03-12T15:48:52.157Z,3.90
2023-03-12T15:52:07.034Z,5.17
2023-03-12T15:55:26.962Z,3.60
2023-03-12T15:58:32.814Z,3.70
2023-03-12T16:01:46.564Z,6.73
2023-03-12T16:04:49.514Z,4.67
2023-03-12T16:07:54.359Z,3.00
2023-03-12T16:10:57.463Z,3.40
2023-03-12T16:14:05.468Z,4.03
2023-03-12T16:17:14.630Z,6.10
2023-03-12T16:20:18.467Z,3.67
2023-03-12T16:23:22.753Z,4.13
2023-03-12T16:26:25.966Z,4.33
2023-03-12T16:29:34.449Z,4.80
2023-03-12T16:32:37.453Z,4.57
2023-03-12T16:35:40.493Z,3.80
2023-03-12T16:38:45.228Z,4.03
2023-03-12T16:41:48.824Z,4.23
2023-03-12T16:44:51.878Z,5.50
2023-03-12T16:48:01.113Z,3.83
2023-03-12T16:51:04.324Z,6.13
2023-03-12T16:54:11.816Z,3.40
2023-03-12T16:57:23.340Z,3.13
2023-03-12T17:00:30.170Z,5.10
2023-03-12T17:03:36.525Z,7.17
2023-03-12T17:06:41.232Z,4.73
2023-03-12T17:09:45.597Z,5.00
2023-03-12T17:12:49.512Z,4.87
2023-03-12T17:15:53.294Z,4.40
2023-03-12T17:18:57.031Z,6.83
2023-03-12T17:22:00.114Z,4.10
2023-03-12T17:25:04.933Z,5.17
2023-03-12T17:28:09.354Z,5.87
2023-03-12T17:31:12.427Z,5.33
2023-03-12T17:34:15.761Z,4.97
2023-03-12T17:37:18.773Z,5.57
2023-03-12T17:40:23.227Z,4.93
2023-03-12T17:43:26.360Z,6.07
2023-03-12T17:46:29.806Z,5.60
2023-03-12T17:49:32.827Z,6.13
2023-03-12T17:52:36.137Z,5.97
2023-03-12T17:55:41.102Z,6.07
2023-03-12T17:58:44.182Z,7.87
2023-03-12T18:01:47.138Z,7.40
2023-03-12T18:04:50.168Z,6.40
2023-03-12T18:07:53.139Z,7.70
2023-03-12T18:10:57.491Z,7.87
2023-03-12T18:14:00.452Z,7.87
2023-03-12T18:17:03.399Z,7.80
2023-03-12T18:20:09.960Z,16.20
2023-03-12T18:23:12.908Z,15.47
2023-03-12T18:26:17.219Z,11.83
2023-03-12T18:29:20.194Z,13.57
2023-03-12T18:32:23.183Z,15.17
2023-03-12T18:35:28.858Z,15.97
2023-03-12T18:38:32.783Z,21.03
2023-03-12T18:41:39.421Z,18.87
2023-03-12T18:44:43.311Z,22.40
2023-03-12T18:47:50.134Z,16.17
2023-03-12T18:50:53.382Z,23.17
2023-03-12T18:53:56.333Z,19.00
2023-03-12T18:57:00.885Z,19.43
2023-03-12T19:00:06.198Z,23.17
2023-03-12T19:03:10.018Z,22.47
2023-03-12T19:06:14.626Z,22.43
2023-03-12T19:09:17.610Z,23.80
2023-03-12T19:12:21.954Z,22.13
2023-03-12T19:15:25.131Z,26.77
2023-03-12T19:18:28.697Z,22.93
2023-03-12T19:21:31.701Z,25.10
2023-03-12T19:24:34.706Z,26.23
2023-03-12T19:27:38.995Z,29.37
2023-03-12T19:30:41.944Z,29.70
2023-03-12T19:33:45.107Z,33.07
2023-03-12T19:36:48.079Z,28.90
2023-03-12T19:39:51.055Z,31.67
2023-03-12T19:42:55.369Z,32.63
2023-03-12T19:45:58.327Z,30.50
2023-03-12T19:49:01.330Z,31.70
2023-03-12T19:52:04.906Z,37.93
2023-03-12T19:55:09.514Z,32.60
2023-03-12T19:58:13.831Z,39.93
2023-03-12T20:01:16.808Z,39.33
2023-03-12T20:04:19.836Z,32.00
2023-03-12T20:07:22.788Z,34.17
2023-03-12T20:10:25.928Z,44.43
2023-03-12T20:13:30.270Z,38.77
2023-03-12T20:16:33.310Z,36.37
2023-03-12T20:19:36.369Z,34.70
2023-03-12T20:22:39.339Z,36.40
2023-03-12T20:25:42.963Z,34.97
2023-03-12T20:28:47.245Z,36.07
2023-03-12T20:31:50.263Z,43.67
2023-03-12T20:34:53.222Z,37.57
2023-03-12T20:37:56.180Z,39.77
2023-03-12T20:40:59.100Z,41.20
2023-03-12T20:44:03.418Z,36.63
2023-03-12T20:47:06.420Z,37.50
2023-03-12T20:50:10.946Z,36.20
2023-03-12T20:53:13.944Z,32.77
2023-03-12T20:56:17.017Z,33.70
2023-03-12T20:59:21.379Z,29.47
2023-03-12T21:02:25.135Z,35.43
2023-03-12T21:05:28.610Z,39.97
2023-03-12T21:08:32.845Z,31.57
2023-03-12T21:11:36.174Z,32.03
2023-03-12T21:14:40.904Z,31.20
2023-03-12T21:17:43.835Z,43.73
2023-03-12T21:20:46.826Z,24.67
2023-03-12T21:23:49.918Z,25.97
2023-03-12T21:26:52.864Z,27.10
2023-03-12T21:29:57.138Z,22.30
2023-03-12T21:33:01.265Z,26.03
2023-03-12T21:36:05.806Z,31.70
2023-03-12T21:39:08.753Z,24.60
2023-03-12T21:42:11.803Z,29.30
2023-03-12T21:45:16.138Z,32.27
2023-03-12T21:48:19.057Z,33.03
2023-03-12T21:51:22.657Z,23.50
2023-03-12T21:54:26.872Z,21.80
2023-03-12T21:57:30.422Z,26.70
2023-03-12T22:00:34.696Z,25.77
2023-03-12T22:03:39.051Z,24.63
2023-03-12T22:06:42.400Z,28.03
2023-03-12T22:09:45.345Z,27.00
2023-03-12T22:12:48.246Z,23.80
2023-03-12T22:15:56.466Z,17.90
2023-03-12T22:18:59.540Z,26.03
2023-03-12T22:22:02.648Z,24.33
2023-03-12T22:25:06.334Z,21.97
2023-03-12T22:28:09.263Z,16.13
2023-03-12T22:31:13.578Z,27.60
2023-03-12T22:34:16.609Z,23.97
2023-03-12T22:37:19.551Z,26.30
2023-03-12T22:40:22.601Z,21.23
2023-03-12T22:43:26.856Z,23.70
2023-03-12T22:46:31.282Z,24.20
2023-03-12T22:49:34.383Z,22.07
2023-03-12T22:52:37.303Z,19.73
2023-03-12T22:55:40.277Z,22.27
2023-03-12T22:58:43.250Z,20.20
2023-03-12T23:01:47.564Z,23.50
2023-03-12T23:04:50.671Z,23.87
2023-03-12T23:07:53.688Z,23.90
2023-03-12T23:10:58.710Z,23.00
2023-03-12T23:14:01.736Z,23.57
2023-03-12T23:17:06.204Z,20.70
2023-03-12T23:20:10.464Z,18.73
2023-03-12T23:23:15.501Z,22.43
2023-03-12T23:26:20.907Z,15.37
2023-03-12T23:29:24.052Z,13.43
2023-03-12T23:32:28.397Z,18.93
2023-03-12T23:35:31.768Z,18.73
2023-03-12T23:38:37.477Z,21.33
2023-03-12T23:41:41.135Z,18.67
2023-03-12T23:44:44.117Z,19.17
2023-03-12T23:47:48.384Z,19.63
2023-03-12T23:50:51.341Z,20.13
2023-03-12T23:53:57.582Z,17.63
2023-03-12T23:57:00.596Z,16.43
